EDT,Max TemperatureF,Mean TemperatureF,Min TemperatureF,Max Dew PointF,MeanDew PointF,Min DewpointF,Max Humidity, Mean Humidity, Min Humidity, Max Sea Level PressureIn, Mean Sea Level PressureIn, Min Sea Level PressureIn, Max VisibilityMiles, Mean VisibilityMiles, Min VisibilityMiles, Max Wind SpeedMPH, Mean Wind SpeedMPH, Max Gust SpeedMPH,PrecipitationIn, CloudCover, Events, WindDirDegrees
2012-8-1,87,74,57,63,58,52,93,60,31,29.94,29.91,29.88,10,10,10,10,5,,0.00,0,,353
2012-8-2,93,72,52,65,59,51,97,63,30,29.91,29.88,29.83,10,10,10,10,2,16,0.00,0,,240
2012-8-3,96,76,60,68,63,58,93,63,33,29.96,29.92,29.88,10,10,9,10,2,17,0.00,0,,134
2012-8-4,91,78,64,73,67,63,97,77,50,30.00,29.93,29.83,10,6,0,17,3,24,0.00,2,Fog-Rain-Thunderstorm,194
2012-8-5,90,80,69,72,63,49,94,69,30,30.11,29.94,29.86,10,8,4,20,8,28,0.00,4,Rain,265
2012-8-6,84,64,44,54,48,43,100,72,27,30.17,30.12,30.02,10,6,0,9,1,28,0.00,0,Fog,201
2012-8-7,91,70,48,59,51,46,94,70,26,30.02,29.98,29.90,10,6,0,13,2,21,0.00,0,Fog,248
2012-8-8,90,75,61,65,58,51,87,56,30,29.97,29.95,29.93,10,10,10,12,4,17,0.00,1,,7
2012-8-9,72,67,62,63,61,54,94,87,53,29.98,29.90,29.80,10,7,2,15,6,21,0.13,8,Rain-Thunderstorm,53
2012-8-10,71,65,60,63,60,57,94,87,64,29.79,29.70,29.65,10,7,1,14,6,25,0.20,8,Rain,293
2012-8-11,72,65,59,59,57,55,93,83,61,29.95,29.82,29.72,10,8,2,15,10,20,0.05,8,Rain,312
2012-8-12,82,68,55,59,56,53,93,67,38,30.01,29.98,29.94,10,10,10,14,5,20,0.00,2,,289
2012-8-13,77,68,60,62,59,55,93,75,50,30.02,29.98,29.95,10,10,5,6,2,,0.06,5,Rain,339
2012-8-14,81,69,57,62,59,53,94,78,40,29.95,29.92,29.87,10,7,2,10,5,,0.33,6,Rain,14
2012-8-15,84,68,51,64,56,51,100,85,40,29.97,29.94,29.92,10,5,0,9,1,,0.00,1,Fog,244
2012-8-16,82,70,57,64,60,56,100,82,46,29.98,29.91,29.77,10,5,0,18,3,29,0.05,2,Fog-Rain,225
2012-8-17,78,67,59,62,54,47,93,65,37,29.98,29.91,29.84,10,10,9,14,7,23,0.00,2,,303
2012-8-18,77,58,41,49,44,38,100,72,27,30.04,30.00,29.95,10,7,0,7,2,,0.00,0,Fog,261
2012-8-19,80,63,48,52,48,43,93,60,31,29.97,29.94,29.89,10,10,10,10,1,,0.00,2,,4
2012-8-20,79,63,48,55,50,46,94,71,32,30.00,29.95,29.92,10,8,1,9,2,,0.00,1,,7
2012-8-21,82,66,50,56,52,48,97,79,31,30.11,30.05,30.00,10,7,0,12,1,,0.00,2,Fog,223
2012-8-22,84,65,48,59,50,46,100,77,28,30.15,30.11,30.07,10,4,0,10,1,,0.00,0,Fog,261
2012-8-23,88,67,46,57,51,46,100,75,29,30.16,30.12,30.08,10,6,0,16,2,86,0.00,0,Fog,239
2012-8-24,90,70,51,62,55,50,100,79,30,30.14,30.11,30.04,10,4,0,10,1,17,0.00,0,Fog,180
2012-8-25,93,74,57,63,58,53,100,76,27,30.13,30.10,30.06,10,4,0,12,1,,0.00,0,Fog,176
2012-8-26,91,74,57,67,60,57,100,79,35,30.15,30.10,30.00,10,5,0,16,2,26,0.00,1,Fog-Rain,163
2012-8-27,87,74,64,70,67,56,94,83,43,30.04,30.00,29.93,10,6,0,12,3,,0.61,6,Fog-Rain,65
2012-8-28,81,70,55,58,55,52,90,61,39,30.10,30.06,30.01,10,10,10,15,7,23,0.00,0,,347
2012-8-29,81,66,50,59,54,48,100,78,36,30.13,30.09,30.04,10,6,0,6,1,,0.00,0,Fog,220
2012-8-30,84,66,48,59,53,47,100,80,34,30.12,30.08,30.01,10,4,0,14,2,21,0.00,0,Fog,220
2012-8-31,93,74,55,69,62,53,93,67,39,30.05,30.02,29.99,10,10,7,18,6,50,0.00,0,,254